Latest Weather Observations for Melbourne Airport

IDV60801

Issued at 3:02 pm EST Sunday 23 April 2017 (issued every 30 minutes, with the page automatically refreshed every 10 minutes)

About weather observations | Map of weather stations | Latest weather observations for VIC | Other Formats
Station Details ID: 086282 Name: MELBOURNE AIRPORT Lat: -37.67 Lon: 144.83 Height: 113.4 m
Data from the previous 72 hours. | See also: Recent months at Melbourne Airport
Date/Time
EST
Temp
°C
App
Temp
°C
Dew
Point
°C
Rel
Hum
%
Delta-T
°C
Wind Press
QNH
hPa
Press
MSL
hPa
Rain since
9am
mm
Dir  Spd
km/h
Gust
km/h
Spd
kts
Gust
kts
23/02:30pm 20.9 21.0 12.6 59 4.7 WSW 4 7 2 4 1022.3 1022.2 0.0
23/02:00pm 20.5 19.6 12.7 61 4.4 SW 9 15 5 8 1022.4 1022.3 0.0
23/01:30pm 20.5 19.8 13.3 63 4.1 SSW 9 15 5 8 1022.5 1022.4 0.0
23/01:00pm 21.1 20.4 13.2 60 4.5 SE 9 13 5 7 1023.0 1022.9 0.0
23/12:30pm 20.6 20.9 13.5 63 4.1 WSW 4 11 2 6 1023.4 1023.3 0.0
23/12:00pm 20.4 19.9 12.6 61 4.4 ESE 7 11 4 6 1023.7 1023.6 0.0
23/11:30am 20.3 19.8 12.7 61 4.3 NW 7 11 4 6 1024.3 1024.2 0.0
23/11:00am 19.7 19.2 13.8 69 3.4 NNW 9 13 5 7 1024.6 1024.5 0.0
23/10:30am 19.8 19.3 13.7 68 3.5 WNW 9 15 5 8 1024.7 1024.6 0.0
23/10:00am 18.4 18.3 14.0 75 2.5 WNW 7 11 4 6 1024.8 1024.7 0.0
23/09:30am 17.8 17.4 14.1 79 2.1 WNW 9 13 5 7 1025.1 1025.0 0.0
23/09:00am 17.5 16.7 14.0 80 2.0 N 11 13 6 7 1025.1 1025.0 1.6
23/08:30am 16.2 15.4 14.1 87 1.2 N 11 13 6 7 1024.8 1024.7 1.6
23/08:00am 15.1 13.4 13.5 90 0.9 N 15 17 8 9 1024.7 1024.6 1.6
23/07:30am 14.2 12.8 13.3 94 0.5 N 13 17 7 9 1024.4 1024.3 1.6
23/07:00am 13.8 13.1 13.1 96 0.4 N 9 11 5 6 1024.2 1024.1 1.6
23/06:30am 14.6 12.8 13.2 91 0.8 N 15 17 8 9 1024.1 1024.0 1.6
23/06:00am 14.3 12.5 13.2 93 0.6 N 15 17 8 9 1023.9 1023.8 1.6
23/05:30am 14.1 12.4 12.6 91 0.8 NW 13 15 7 8 1023.7 1023.6 1.6
23/05:00am 14.2 13.0 12.9 92 0.7 NNW 11 13 6 7 1023.6 1023.5 1.6
23/04:30am 13.3 12.4 12.6 95 0.4 NNW 9 9 5 5 1023.5 1023.4 1.6
23/04:00am 14.2 13.5 13.1 93 0.6 NW 9 11 5 6 1023.5 1023.4 1.6
23/03:30am 14.8 14.0 14.1 96 0.4 N 11 13 6 7 1023.7 1023.6 1.6
23/03:00am 14.6 13.5 14.2 97 0.2 N 13 17 7 9 1023.8 1023.7 1.6
23/02:30am 14.7 13.6 14.2 97 0.3 N 13 15 7 8 1023.8 1023.7 1.6
23/02:00am 14.7 14.0 14.3 97 0.2 N 11 13 6 7 1024.0 1023.9 1.6
23/01:30am 14.3 14.3 14.1 99 0.1 N 7 9 4 5 1023.8 1023.7 1.6
23/01:00am 15.4 15.3 14.9 97 0.3 N 9 11 5 6 1023.9 1023.8 1.6
23/12:30am 15.5 17.1 15.0 97 0.3 CALM 0 4 0 2 1024.0 1023.9 1.6
23/12:00am 15.6 15.9 15.1 97 0.3 N 7 9 4 5 1024.1 1024.0 1.6
 
Date/Time
EST
Temp
°C
App
Temp
°C
Dew
Point
°C
Rel
Hum
%
Delta-T
°C
Wind Press
QNH
hPa
Press
MSL
hPa
Rain since
9am
mm
Dir  Spd
km/h
Gust
km/h
Spd
kts
Gust
kts
22/11:30pm 15.8 15.9 15.5 98 0.2 N 9 9 5 5 1024.1 1024.0 1.6
22/11:00pm 15.9 16.5 15.2 96 0.4 NNW 6 7 3 4 1024.3 1024.2 1.6
22/10:30pm 15.9 16.3 15.4 97 0.3 N 7 9 4 5 1024.5 1024.4 1.6
22/10:00pm 16.1 16.7 15.2 94 0.5 WNW 6 7 3 4 1024.5 1024.4 1.0
22/09:30pm 16.6 17.1 15.0 90 0.9 WSW 6 11 3 6 1024.4 1024.3 0.6
22/09:00pm 16.7 15.9 15.0 90 1.0 SW 13 15 7 8 1024.2 1024.1 0.6
22/08:30pm 17.1 16.2 14.9 87 1.3 SW 13 17 7 9 1023.9 1023.8 0.6
22/08:00pm 17.2 17.9 16.0 93 0.7 W 7 11 4 6 1023.6 1023.5 0.6
22/07:30pm 18.0 18.0 15.1 83 1.7 SW 9 13 5 7 1023.2 1023.1 0.0
22/07:00pm 18.1 17.3 15.0 82 1.8 N 13 15 7 8 1022.9 1022.8 0.0
22/06:30pm 18.3 17.8 14.9 80 2.0 NNE 11 15 6 8 1022.6 1022.5 0.0
22/06:00pm 18.9 18.0 14.8 77 2.4 N 13 20 7 11 1022.4 1022.3 0.0
22/05:30pm 19.2 19.0 14.7 75 2.6 NNW 9 20 5 11 1022.2 1022.1 0.0
22/05:00pm 19.4 16.7 14.6 74 2.8 N 22 30 12 16 1022.0 1021.9 0.0
22/04:30pm 20.5 16.9 14.3 67 3.6 N 26 33 14 18 1021.7 1021.6 0.0
22/04:00pm 20.5 16.9 14.1 66 3.7 N 26 35 14 19 1021.6 1021.5 0.0
22/03:30pm 21.7 17.7 14.2 62 4.4 N 28 35 15 19 1021.5 1021.4 0.0
22/03:00pm 21.6 17.7 14.4 63 4.2 N 28 33 15 18 1021.6 1021.5 0.0
22/02:30pm 21.0 16.8 14.7 67 3.7 N 30 35 16 19 1021.7 1021.6 0.0
22/02:00pm 20.6 16.4 14.6 68 3.5 N 30 37 16 20 1021.9 1021.8 0.0
22/01:30pm 20.3 15.7 14.5 69 3.4 N 32 37 17 20 1022.1 1022.0 0.0
22/01:00pm 21.0 16.8 14.7 67 3.7 N 30 37 16 20 1022.4 1022.3 0.0
22/12:30pm 19.5 15.2 14.3 72 3.0 N 30 37 16 20 1022.9 1022.8 0.0
22/12:00pm 18.7 13.9 14.0 74 2.7 N 32 37 17 20 1023.2 1023.1 0.0
22/11:30am 18.5 13.2 14.3 76 2.4 N 35 41 19 22 1023.6 1023.5 0.0
22/11:00am 18.3 13.6 14.3 77 2.3 N 32 41 17 22 1023.8 1023.7 0.0
22/10:30am 18.8 13.5 14.3 75 2.6 N 35 43 19 23 1023.9 1023.8 0.0
22/10:00am 18.2 13.5 14.4 78 2.2 N 32 39 17 21 1024.0 1023.9 0.0
22/09:30am 17.3 12.6 14.2 82 1.8 N 32 41 17 22 1023.9 1023.8 0.0
22/09:00am 17.1 12.7 14.1 82 1.7 N 30 35 16 19 1023.8 1023.7 8.4
22/08:30am 16.7 12.7 14.1 85 1.5 N 28 35 15 19 1023.7 1023.6 8.4
22/08:00am 16.4 12.3 13.9 85 1.4 N 28 37 15 20 1023.4 1023.3 8.4
22/07:30am 15.6 11.4 13.6 88 1.1 N 28 35 15 19 1022.9 1022.8 8.4
22/07:00am 15.4 11.2 13.6 89 1.0 N 28 33 15 18 1022.5 1022.4 8.4
22/06:30am 15.2 11.1 13.8 91 0.8 N 28 35 15 19 1022.2 1022.1 8.4
22/06:00am 15.5 11.8 13.9 90 0.9 N 26 33 14 18 1022.2 1022.1 8.4
22/05:30am 15.6 11.2 14.0 90 0.9 N 30 37 16 20 1021.9 1021.8 8.4
22/05:00am 15.7 11.6 13.9 89 1.0 N 28 35 15 19 1021.7 1021.6 8.4
22/04:30am 15.7 11.3 14.1 90 0.9 N 30 37 16 20 1021.7 1021.6 8.4
22/04:00am 15.7 10.9 14.1 90 0.9 N 32 39 17 21 1021.5 1021.4 8.4
22/03:30am 15.8 11.4 14.2 90 0.9 N 30 37 16 20 1021.6 1021.5 8.4
22/03:00am 15.8 11.1 14.2 90 0.9 N 32 37 17 20 1021.6 1021.5 8.4
22/02:30am 16.1 12.5 14.3 89 1.0 N 26 35 14 19 1021.6 1021.5 8.4
22/02:00am 16.2 12.6 14.3 88 1.1 N 26 35 14 19 1021.6 1021.5 8.4
22/01:30am 16.1 12.5 14.3 89 1.0 N 26 30 14 16 1021.8 1021.7 8.4
22/01:00am 16.2 13.0 14.3 88 1.1 N 24 30 13 16 1021.8 1021.7 8.4
22/12:30am 16.5 11.7 14.0 85 1.4 N 32 46 17 25 1021.9 1021.8 8.4
22/12:00am 16.7 12.3 14.1 85 1.5 N 30 39 16 21 1021.7 1021.6 8.4
 
Date/Time
EST
Temp
°C
App
Temp
°C
Dew
Point
°C
Rel
Hum
%
Delta-T
°C
Wind Press
QNH
hPa
Press
MSL
hPa
Rain since
9am
mm
Dir  Spd
km/h
Gust
km/h
Spd
kts
Gust
kts
21/11:30pm 16.7 11.4 14.3 86 1.4 N 35 46 19 25 1021.6 1021.5 8.4
21/11:00pm 16.4 11.2 14.5 88 1.1 N 35 52 19 28 1021.5 1021.4 8.4
21/10:30pm 16.6 11.4 14.5 87 1.2 N 35 48 19 26 1021.5 1021.4 8.4
21/10:00pm 16.6 11.8 14.5 87 1.2 N 33 43 18 23 1021.6 1021.5 8.4
21/09:30pm 16.6 12.8 14.7 88 1.1 N 28 39 15 21 1021.6 1021.5 8.4
21/09:00pm 16.5 13.4 14.4 87 1.2 N 24 39 13 21 1021.6 1021.5 8.4
21/08:30pm 16.5 13.5 14.8 90 1.0 N 24 32 13 17 1021.6 1021.5 8.4
21/08:00pm 16.6 13.6 14.7 88 1.1 N 24 32 13 17 1021.4 1021.3 8.4
21/07:30pm 16.3 12.9 14.7 90 0.9 N 26 33 14 18 1021.3 1021.2 8.4
21/07:00pm 16.6 12.9 14.9 90 1.0 N 28 41 15 22 1021.2 1021.1 8.4
21/06:30pm 16.3 13.4 15.1 93 0.7 N 24 33 13 18 1020.9 1020.8 8.2
21/06:00pm 16.5 12.8 14.9 90 0.9 N 28 37 15 20 1020.6 1020.5 8.2
21/05:30pm 16.3 12.3 15.3 94 0.6 N 30 46 16 25 1020.5 1020.4 8.0
21/05:19pm 16.5 12.1 15.1 91 0.8 N 32 48 17 26 1020.2 1020.1 7.8
21/05:00pm 16.4 13.5 15.2 93 0.7 N 24 33 13 18 1020.3 1020.2 7.2
21/04:30pm 16.3 12.6 14.9 91 0.8 N 28 39 15 21 1020.2 1020.1 6.8
21/04:00pm 16.1 12.0 14.9 93 0.7 N 30 39 16 21 1020.2 1020.1 6.4
21/03:30pm 15.7 11.0 14.8 94 0.5 N 33 44 18 24 1019.8 1019.7 5.2
21/03:00pm 15.9 11.1 14.5 91 0.8 N 33 46 18 25 1019.8 1019.7 2.4
21/02:48pm 16.0 10.9 14.8 93 0.7 N 35 43 19 23 1019.8 1019.7 1.8
21/02:30pm 16.1 11.0 14.7 91 0.8 N 35 46 19 25 1019.7 1019.6 1.4
21/02:00pm 16.4 10.5 14.7 90 1.0 N 39 50 21 27 1019.8 1019.7 1.2
21/01:30pm 17.0 10.8 14.8 87 1.3 N 41 52 22 28 1019.9 1019.8 1.0
21/01:16pm 17.2 10.7 13.9 81 1.9 N 41 59 22 32 1019.7 1019.6 1.0
21/01:08pm 17.2 9.7 13.9 81 1.9 N 46 59 25 32 1019.6 1019.5 1.0
21/01:00pm 17.6 10.2 14.1 80 2.0 N 46 59 25 32 1019.8 1019.7 1.0
21/12:41pm 18.1 12.1 14.5 79 2.1 N 39 52 21 28 1019.7 1019.6 1.0
21/12:30pm 18.0 10.3 14.4 79 2.1 N 48 61 26 33 1019.8 1019.7 1.0
21/12:00pm 18.6 13.1 14.8 78 2.2 N 37 56 20 30 1020.3 1020.2 1.0
21/11:57am 18.7 14.1 15.1 79 2.1 N 33 56 18 30 1020.3 1020.2 1.0
21/11:30am 18.6 14.1 15.4 81 1.9 N 33 46 18 25 1020.6 1020.5 1.0
21/11:00am 19.0 12.8 15.8 82 1.9 N 43 57 23 31 1020.5 1020.4 1.0
21/10:30am 18.3 12.7 15.6 84 1.6 NNE 39 52 21 28 1020.4 1020.3 1.0
21/10:07am 17.9 12.3 15.5 86 1.4 NNE 39 59 21 32 1020.4 1020.3 1.0
21/10:00am 17.8 12.7 15.8 88 1.2 NNE 37 54 20 29 1020.4 1020.3 1.0
21/09:30am 17.2 12.7 15.3 88 1.1 NNE 33 46 18 25 1020.5 1020.4 0.4
21/09:00am 17.4 12.5 15.2 87 1.3 NNE 35 48 19 26 1020.5 1020.4 7.8
21/08:42am 17.5 11.7 14.9 85 1.5 NNE 39 63 21 34 1020.5 1020.4 7.6
21/08:30am 17.0 11.7 15.3 90 1.0 NNE 37 48 20 26 1020.5 1020.4 7.6
21/08:00am 17.0 11.3 15.1 88 1.1 NNE 39 54 21 29 1020.3 1020.2 7.0
21/07:35am 16.7 12.7 15.2 91 0.9 NNE 30 48 16 26 1020.3 1020.2 7.0
21/07:30am 16.6 13.4 15.2 91 0.8 NNE 26 37 14 20 1020.2 1020.1 7.0
21/07:00am 16.2 13.2 14.8 91 0.8 NE 24 35 13 19 1020.3 1020.2 6.8
21/06:47am 16.2 13.1 14.6 90 0.9 NE 24 32 13 17 1020.1 1020.0 6.8
21/06:30am 15.9 13.2 14.7 93 0.7 ENE 22 32 12 17 1020.0 1019.9 6.6
21/06:00am 15.6 14.3 14.7 94 0.5 ENE 15 19 8 10 1020.3 1020.2 5.2
21/05:30am 15.7 13.8 14.3 91 0.8 E 17 20 9 11 1020.4 1020.3 3.6
21/05:00am 15.6 13.8 14.4 93 0.7 ENE 17 19 9 10 1020.6 1020.5 2.8
21/04:30am 15.6 15.3 14.4 93 0.7 NE 9 13 5 7 1020.7 1020.6 1.6
21/04:00am 15.8 15.4 14.0 89 1.0 NNE 9 9 5 5 1020.7 1020.6 0.8
21/03:30am 15.9 15.1 14.0 88 1.1 NNE 11 13 6 7 1020.8 1020.7 0.8
21/03:00am 16.0 14.4 13.9 87 1.2 N 15 17 8 9 1020.9 1020.8 0.8
21/02:30am 16.2 14.2 13.9 86 1.3 NE 17 22 9 12 1020.9 1020.8 0.6
21/02:00am 16.6 14.5 13.6 82 1.7 NE 17 22 9 12 1021.3 1021.2 0.2
21/01:30am 18.4 15.8 11.9 66 3.6 NNE 17 26 9 14 1021.8 1021.7 0.0
21/01:00am 19.0 16.1 11.1 60 4.3 NNE 17 20 9 11 1021.6 1021.5 0.0
21/12:30am 19.8 17.0 10.1 53 5.2 NNE 15 26 8 14 1021.7 1021.6 0.0
21/12:00am 19.1 16.7 10.2 56 4.8 N 13 15 7 8 1021.8 1021.7 0.0
 
Date/Time
EST
Temp
°C
App
Temp
°C
Dew
Point
°C
Rel
Hum
%
Delta-T
°C
Wind Press
QNH
hPa
Press
MSL
hPa
Rain since
9am
mm
Dir  Spd
km/h
Gust
km/h
Spd
kts
Gust
kts
20/11:30pm 19.1 17.3 10.8 58 4.5 NNW 11 15 6 8 1022.0 1021.9 0.0
20/11:00pm 18.1 16.9 11.5 65 3.6 NNW 9 13 5 7 1022.3 1022.2 0.0
20/10:30pm 19.2 17.5 11.2 60 4.4 N 11 15 6 8 1022.2 1022.1 0.0
20/10:00pm 19.3 18.6 11.9 62 4.1 ENE 7 9 4 5 1022.4 1022.3 0.0
20/09:30pm 20.0 19.1 10.6 54 5.1 NE 6 9 3 5 1022.7 1022.6 0.0
20/09:00pm 19.9 18.4 10.7 55 5.0 NE 9 15 5 8 1022.7 1022.6 0.0
20/08:30pm 19.4 17.9 10.7 57 4.7 NNE 9 11 5 6 1022.8 1022.7 0.0
20/08:00pm 20.3 18.8 10.6 53 5.3 NE 9 15 5 8 1022.9 1022.8 0.0
20/07:30pm 19.9 18.5 10.9 56 4.9 NE 9 11 5 6 1023.0 1022.9 0.0
20/07:00pm 21.4 20.2 10.2 49 6.1 NE 7 13 4 7 1023.0 1022.9 0.0
20/06:30pm 21.1 18.9 10.9 52 5.6 ENE 13 17 7 9 1022.9 1022.8 0.0
20/06:00pm 21.7 19.3 10.1 47 6.3 ENE 13 15 7 8 1022.7 1022.6 0.0
20/05:30pm 22.8 19.8 9.2 42 7.3 NNE 15 20 8 11 1022.6 1022.5 0.0
20/05:00pm 23.5 19.0 8.5 38 8.0 NNE 22 28 12 15 1022.5 1022.4 0.0
20/04:30pm 24.3 20.7 9.7 39 8.0 NNE 19 28 10 15 1022.4 1022.3 0.0
20/04:00pm 24.5 21.0 10.2 40 7.9 NNE 19 28 10 15 1022.4 1022.3 0.0
20/03:30pm 24.3 19.7 9.7 39 8.0 NNE 24 33 13 18 1022.4 1022.3 0.0

Other Formats:

Comma delimited format used in spreadsheet applications
http://www.bom.gov.au/fwo/IDV60801/IDV60801.94866.axf

JavaScript Object Notation format (JSON) in row-major order
http://www.bom.gov.au/fwo/IDV60801/IDV60801.94866.json